Terminal Aerodrome Forecast
Issued by NWS

Home | Current Version | Previous Version | Graphics & Text | Print | Product List | Glossary On
Versions: 1 2 3 4 5 6 7 8 9 10 11 12 13 14 15 16 17 18 19 20 21 22 23 24 25 26 27 28 29 30 31 32 33 34 35
000
FTUS43 KLOT 271200 AAA
TAFORD
TAF AMD
KORD 271250Z 2713/2818 31009KT P6SM VCSH OVC013
      TEMPO 2713/2715 SCT013
     FM271500 31011G16KT P6SM BKN018 BKN045
     FM271900 31012G18KT P6SM SCT025 BKN035
     FM272100 31011G15KT P6SM SCT035
     FM280100 29006KT P6SM SCT250
     FM280900 20005KT P6SM BKN100=

USA.gov is the U.S. government's official web portal to all federal, state and local government web resources and services.